Time;durP1;ratioP1;P1;durP2;ratioP2;P2;SDS_P1;SDS_P2;PMS_P1;PMS_P2;Temp;Humidity;BMP_temperature;BMP_pressure;BME280_temperature;BME280_humidity;BME280_pressure;Samples;Min_cycle;Max_cycle;Signal;HPM_P1;HPM_P2
2022/05/08 00:00:47;;;;;;;7.47;4.88;;;;;;;;;;5037297;28;20021;-70
2022/05/08 00:03:12;;;;;;;5.60;4.65;;;;;;;;;;5039826;28;20033;-70
2022/05/08 00:05:39;;;;;;;7.40;4.65;;;;;;;;;;5030959;28;20021;-71
2022/05/08 00:08:05;;;;;;;7.30;4.78;;;;;;;;;;5039959;28;20475;-69
2022/05/08 00:10:30;;;;;;;6.40;4.53;;;;;;;;;;5032031;28;20059;-69
2022/05/08 00:12:56;;;;;;;5.88;5.03;;;;;;;;;;5041709;28;20056;-70
2022/05/08 00:15:21;;;;;;;5.18;4.68;;;;;;;;;;5041053;28;20032;-69
2022/05/08 00:17:46;;;;;;;7.72;5.28;;;;;;;;;;5035696;28;20395;-69
2022/05/08 00:20:12;;;;;;;5.07;4.30;;;;;;;;;;5030488;28;20112;-68
2022/05/08 00:22:45;;;;;;;4.95;4.30;;;;;;;;;;5035198;28;20024;-69
2022/05/08 00:25:11;;;;;;;6.05;4.60;;;;;;;;;;5043615;28;20048;-70
2022/05/08 00:27:36;;;;;;;5.30;4.80;;;;;;;;;;5046893;28;20077;-70
2022/05/08 00:30:02;;;;;;;6.07;5.05;;;;;;;;;;5030977;28;20025;-69
2022/05/08 00:32:28;;;;;;;5.45;4.88;;;;;;;;;;5031107;28;20396;-69
2022/05/08 00:34:53;;;;;;;5.60;4.97;;;;;;;;;;5039814;28;20392;-69
2022/05/08 00:37:18;;;;;;;5.72;5.13;;;;;;;;;;5030602;28;20536;-70
2022/05/08 00:39:44;;;;;;;6.88;5.50;;;;;;;;;;5029992;28;20025;-69
2022/05/08 00:42:09;;;;;;;11.52;9.50;;;;;;;;;;5034927;28;20108;-70
2022/05/08 00:44:35;;;;;;;7.68;5.32;;;;;;;;;;5042810;28;20027;-69
2022/05/08 00:47:00;;;;;;;7.32;4.82;;;;;;;;;;5051255;28;20032;-69
2022/05/08 00:49:25;;;;;;;8.70;5.03;;;;;;;;;;5045740;28;20029;-70
2022/05/08 00:51:51;;;;;;;6.03;5.30;;;;;;;;;;5038435;28;20036;-70
2022/05/08 00:54:17;;;;;;;9.23;5.03;;;;;;;;;;5029682;28;20406;-69
2022/05/08 00:56:43;;;;;;;6.72;5.32;;;;;;;;;;5044078;28;20029;-69
2022/05/08 00:59:09;;;;;;;5.13;4.63;;;;;;;;;;5042713;28;20536;-70
2022/05/08 01:01:34;;;;;;;5.65;4.95;;;;;;;;;;5042734;28;20534;-70
2022/05/08 01:04:00;;;;;;;6.93;5.40;;;;;;;;;;5050393;28;20111;-69
2022/05/08 01:06:26;;;;;;;7.13;4.68;;;;;;;;;;5051077;28;20501;-70
2022/05/08 01:08:52;;;;;;;6.20;4.90;;;;;;;;;;5032031;28;20037;-69
2022/05/08 01:11:18;;;;;;;7.50;5.05;;;;;;;;;;5030852;28;20386;-68
2022/05/08 01:13:44;;;;;;;6.38;5.30;;;;;;;;;;5030862;28;20091;-69
2022/05/08 01:16:12;;;;;;;6.43;5.28;;;;;;;;;;5031085;28;20025;-68
2022/05/08 01:18:38;;;;;;;6.32;5.50;;;;;;;;;;5030654;28;20108;-69
2022/05/08 01:21:04;;;;;;;7.10;5.68;;;;;;;;;;5037435;28;20068;-69
2022/05/08 01:23:29;;;;;;;6.03;5.43;;;;;;;;;;5038223;28;20021;-69
2022/05/08 01:25:56;;;;;;;7.88;5.50;;;;;;;;;;5036852;28;20052;-71
2022/05/08 01:28:23;;;;;;;8.23;6.28;;;;;;;;;;5029891;28;20418;-69
2022/05/08 01:30:51;;;;;;;6.72;5.68;;;;;;;;;;5030598;28;20225;-69
2022/05/08 01:33:17;;;;;;;5.68;5.10;;;;;;;;;;5031444;28;20032;-69
2022/05/08 01:35:43;;;;;;;6.80;5.82;;;;;;;;;;5041552;28;20025;-69
2022/05/08 01:38:10;;;;;;;6.72;5.55;;;;;;;;;;5036767;28;20030;-69
2022/05/08 01:40:36;;;;;;;8.80;5.57;;;;;;;;;;5037922;28;20029;-69
2022/05/08 01:43:02;;;;;;;7.38;6.13;;;;;;;;;;5030458;28;20556;-70
2022/05/08 01:45:28;;;;;;;6.63;5.90;;;;;;;;;;5029332;28;20096;-71
2022/05/08 01:50:38;;;;;;;7.85;5.70;;;;;;;;;;5035278;28;20119;-69
2022/05/08 01:53:03;;;;;;;7.05;6.35;;;;;;;;;;5035773;28;20553;-71
2022/05/08 01:55:28;;;;;;;9.35;6.57;;;;;;;;;;5034844;28;20029;-71
2022/05/08 01:57:54;;;;;;;8.20;6.60;;;;;;;;;;5035074;28;20017;-70
2022/05/08 02:00:21;;;;;;;7.32;6.50;;;;;;;;;;5029955;28;20056;-70
2022/05/08 02:02:48;;;;;;;8.65;6.85;;;;;;;;;;5034798;28;20062;-70
2022/05/08 02:05:17;;;;;;;7.88;6.03;;;;;;;;;;5039983;28;20055;-70
2022/05/08 02:07:46;;;;;;;10.27;7.15;;;;;;;;;;5037416;28;20502;-70
2022/05/08 02:10:15;;;;;;;9.02;6.97;;;;;;;;;;5029195;28;20483;-70
2022/05/08 02:12:41;;;;;;;11.70;7.05;;;;;;;;;;5029355;28;20387;-69
2022/05/08 02:15:11;;;;;;;10.43;7.15;;;;;;;;;;5028357;28;20021;-70
2022/05/08 02:17:38;;;;;;;11.35;6.82;;;;;;;;;;5030473;28;20028;-70
2022/05/08 02:20:06;;;;;;;8.13;6.70;;;;;;;;;;5029824;28;20033;-71
2022/05/08 02:22:34;;;;;;;9.50;6.97;;;;;;;;;;5028365;28;20461;-72
2022/05/08 02:25:00;;;;;;;7.68;6.88;;;;;;;;;;5031497;28;20022;-72
2022/05/08 02:27:25;;;;;;;8.85;6.35;;;;;;;;;;5028736;28;20029;-72
2022/05/08 02:29:51;;;;;;;10.60;6.78;;;;;;;;;;5036817;28;20029;-71
2022/05/08 02:32:18;;;;;;;10.25;6.82;;;;;;;;;;5036194;28;20036;-71
2022/05/08 02:34:44;;;;;;;9.70;7.20;;;;;;;;;;5037335;28;20111;-72
2022/05/08 02:37:10;;;;;;;11.20;7.32;;;;;;;;;;5029345;28;20124;-72
2022/05/08 02:39:36;;;;;;;10.15;7.13;;;;;;;;;;5028277;28;20112;-72
2022/05/08 02:42:01;;;;;;;9.30;7.32;;;;;;;;;;5035958;28;20025;-71
2022/05/08 02:44:27;;;;;;;9.05;6.90;;;;;;;;;;5040813;28;20065;-71
2022/05/08 02:46:52;;;;;;;7.88;6.78;;;;;;;;;;5035803;28;20474;-72
2022/05/08 02:49:17;;;;;;;8.43;6.75;;;;;;;;;;5037661;28;20034;-71
2022/05/08 02:51:43;;;;;;;9.77;7.55;;;;;;;;;;5038920;28;20024;-71
2022/05/08 02:54:08;;;;;;;7.82;6.85;;;;;;;;;;5027523;28;20037;-71
2022/05/08 02:59:18;;;;;;;10.57;7.20;;;;;;;;;;5035752;28;20584;-71
2022/05/08 03:01:43;;;;;;;10.60;7.82;;;;;;;;;;5035755;28;20033;-71
2022/05/08 03:04:08;;;;;;;10.63;7.72;;;;;;;;;;5037033;28;20021;-71
2022/05/08 03:06:34;;;;;;;11.57;8.43;;;;;;;;;;5044389;28;20028;-71
2022/05/08 03:08:59;;;;;;;11.48;8.90;;;;;;;;;;5031983;28;20613;-71
2022/05/08 03:11:27;;;;;;;10.60;8.30;;;;;;;;;;5030039;28;20029;-71
2022/05/08 03:13:57;;;;;;;11.27;8.95;;;;;;;;;;5040474;28;20031;-71
2022/05/08 03:16:23;;;;;;;10.65;8.30;;;;;;;;;;5047509;28;20025;-71
2022/05/08 03:18:49;;;;;;;11.50;8.10;;;;;;;;;;5048454;28;20037;-71
2022/05/08 03:21:15;;;;;;;12.05;8.48;;;;;;;;;;5046282;28;20029;-71
2022/05/08 03:23:42;;;;;;;12.73;8.73;;;;;;;;;;5036803;28;20514;-71
2022/05/08 03:26:07;;;;;;;10.05;8.60;;;;;;;;;;5027570;28;20041;-71
2022/05/08 03:28:34;;;;;;;12.77;8.15;;;;;;;;;;5032503;28;20067;-71
2022/05/08 03:31:01;;;;;;;11.55;8.63;;;;;;;;;;5032800;28;20032;-71
2022/05/08 03:33:27;;;;;;;17.27;9.75;;;;;;;;;;5035276;28;20083;-71
2022/05/08 03:35:53;;;;;;;12.35;9.63;;;;;;;;;;5043825;28;20239;-71
2022/05/08 03:38:18;;;;;;;14.35;9.25;;;;;;;;;;5044124;28;20037;-71
2022/05/08 03:40:43;;;;;;;14.75;9.57;;;;;;;;;;5041708;28;20029;-71
2022/05/08 03:43:09;;;;;;;10.50;8.80;;;;;;;;;;5032408;28;20104;-71
2022/05/08 03:45:35;;;;;;;12.15;8.98;;;;;;;;;;5032426;28;20546;-71
2022/05/08 03:48:01;;;;;;;13.52;9.85;;;;;;;;;;5031913;28;20029;-70
2022/05/08 03:50:28;;;;;;;10.15;8.85;;;;;;;;;;5040551;28;20457;-72
2022/05/08 03:52:53;;;;;;;9.80;8.50;;;;;;;;;;5032557;28;20091;-71
2022/05/08 03:55:19;;;;;;;14.85;9.73;;;;;;;;;;5032792;28;20089;-71
2022/05/08 03:57:45;;;;;;;11.57;9.60;;;;;;;;;;5031434;28;20025;-70
2022/05/08 04:00:11;;;;;;;10.75;9.38;;;;;;;;;;5031884;28;20021;-70
2022/05/08 04:02:37;;;;;;;12.05;9.15;;;;;;;;;;5039704;28;20025;-71
2022/05/08 04:05:05;;;;;;;11.75;9.38;;;;;;;;;;5047755;28;20533;-71
2022/05/08 04:07:31;;;;;;;12.27;9.55;;;;;;;;;;5047548;28;20051;-71
2022/05/08 04:09:56;;;;;;;12.30;8.65;;;;;;;;;;5043272;28;20114;-71
2022/05/08 04:12:22;;;;;;;11.45;8.73;;;;;;;;;;5052021;28;20083;-71
2022/05/08 04:14:47;;;;;;;12.05;9.30;;;;;;;;;;5040940;28;20098;-71
2022/05/08 04:17:13;;;;;;;12.60;9.32;;;;;;;;;;5031662;28;20025;-71
2022/05/08 04:19:38;;;;;;;12.23;9.10;;;;;;;;;;5051369;28;20025;-71
2022/05/08 04:25:10;;;;;;;15.82;10.05;;;;;;;;;;5009313;28;20064;-71
2022/05/08 04:27:36;;;;;;;13.98;10.23;;;;;;;;;;4988026;28;20113;-71
2022/05/08 04:30:03;;;;;;;13.05;9.88;;;;;;;;;;5026356;28;20080;-71
2022/05/08 04:32:28;;;;;;;12.95;10.13;;;;;;;;;;5035399;28;20521;-70
2022/05/08 04:34:53;;;;;;;12.85;9.93;;;;;;;;;;5031408;28;20037;-70
2022/05/08 04:37:18;;;;;;;12.68;9.20;;;;;;;;;;5029324;28;20022;-71
2022/05/08 04:39:44;;;;;;;13.88;9.68;;;;;;;;;;5028412;28;20033;-71
2022/05/08 04:42:09;;;;;;;13.35;9.50;;;;;;;;;;5038779;28;20029;-71
2022/05/08 04:44:34;;;;;;;13.30;9.43;;;;;;;;;;5038873;28;20044;-71
2022/05/08 04:47:00;;;;;;;12.68;9.75;;;;;;;;;;5045796;28;20033;-71
2022/05/08 04:49:25;;;;;;;12.75;9.50;;;;;;;;;;5041552;28;20028;-71
2022/05/08 04:51:50;;;;;;;12.80;9.35;;;;;;;;;;5030289;28;20021;-71
2022/05/08 04:54:15;;;;;;;12.70;9.15;;;;;;;;;;5031214;28;20426;-72
2022/05/08 04:56:41;;;;;;;13.07;10.07;;;;;;;;;;5031085;28;20060;-71
2022/05/08 04:59:06;;;;;;;12.55;9.55;;;;;;;;;;5030906;28;20052;-71
2022/05/08 05:01:31;;;;;;;11.30;9.20;;;;;;;;;;5030269;28;20056;-71
2022/05/08 05:03:57;;;;;;;10.77;8.93;;;;;;;;;;5031009;28;20029;-71
2022/05/08 05:06:22;;;;;;;11.98;9.57;;;;;;;;;;5031030;28;20083;-72
2022/05/08 05:08:47;;;;;;;11.02;9.10;;;;;;;;;;5031097;28;20029;-71
2022/05/08 05:11:13;;;;;;;12.20;9.63;;;;;;;;;;5030708;28;20033;-72
2022/05/08 05:13:38;;;;;;;12.52;9.02;;;;;;;;;;5031063;28;20029;-71
2022/05/08 05:16:05;;;;;;;12.00;9.43;;;;;;;;;;5029979;28;20029;-72
2022/05/08 05:18:30;;;;;;;13.18;10.05;;;;;;;;;;5030518;28;20553;-72
2022/05/08 05:20:56;;;;;;;12.13;9.52;;;;;;;;;;5030840;28;20029;-71
2022/05/08 05:23:21;;;;;;;12.10;9.23;;;;;;;;;;5028259;28;20037;-71
2022/05/08 05:25:48;;;;;;;14.38;10.05;;;;;;;;;;5029707;28;20044;-72
2022/05/08 05:28:13;;;;;;;12.70;9.43;;;;;;;;;;5038417;28;20109;-72
2022/05/08 05:30:38;;;;;;;14.45;9.68;;;;;;;;;;5039962;28;20108;-72
2022/05/08 05:33:04;;;;;;;14.63;10.82;;;;;;;;;;5042630;28;20035;-72
2022/05/08 05:35:29;;;;;;;13.30;10.00;;;;;;;;;;5050304;28;20059;-69
2022/05/08 05:37:54;;;;;;;14.15;11.63;;;;;;;;;;5038485;28;20486;-69
2022/05/08 05:40:20;;;;;;;13.43;11.18;;;;;;;;;;5028787;28;20033;-71
2022/05/08 05:42:46;;;;;;;14.57;11.40;;;;;;;;;;5037181;28;20033;-72
2022/05/08 05:45:11;;;;;;;17.70;12.15;;;;;;;;;;5030057;28;20248;-72
2022/05/08 05:47:49;;;;;;;16.65;12.57;;;;;;;;;;5030372;28;20029;-71
2022/05/08 05:50:15;;;;;;;15.57;11.48;;;;;;;;;;5030284;28;20067;-72
2022/05/08 05:52:40;;;;;;;14.93;12.15;;;;;;;;;;5030363;28;20022;-71
2022/05/08 05:55:06;;;;;;;16.08;11.52;;;;;;;;;;5035267;28;20028;-72
2022/05/08 05:57:35;;;;;;;15.60;11.88;;;;;;;;;;5040943;28;20037;-71
2022/05/08 06:00:01;;;;;;;14.15;11.48;;;;;;;;;;5049772;28;20024;-71
2022/05/08 06:02:26;;;;;;;16.42;12.63;;;;;;;;;;5029327;28;20036;-71
2022/05/08 06:04:52;;;;;;;15.27;11.57;;;;;;;;;;5026032;28;20029;-72
2022/05/08 06:07:17;;;;;;;17.40;12.90;;;;;;;;;;5026189;28;20029;-71
2022/05/08 06:09:42;;;;;;;16.60;13.27;;;;;;;;;;5037239;28;20475;-71
2022/05/08 06:12:08;;;;;;;16.25;12.90;;;;;;;;;;5032393;28;20029;-71
2022/05/08 06:14:33;;;;;;;16.98;12.95;;;;;;;;;;5035231;28;20036;-71
2022/05/08 06:16:59;;;;;;;16.35;12.75;;;;;;;;;;5038022;28;20341;-71
2022/05/08 06:19:24;;;;;;;15.82;12.52;;;;;;;;;;5047241;28;20043;-72
2022/05/08 06:21:50;;;;;;;18.33;12.50;;;;;;;;;;5047964;28;20029;-72
2022/05/08 06:24:15;;;;;;;15.57;12.13;;;;;;;;;;5037816;28;20043;-70
2022/05/08 06:26:40;;;;;;;15.02;11.38;;;;;;;;;;5040668;28;20028;-70
2022/05/08 06:29:06;;;;;;;14.35;11.80;;;;;;;;;;5040101;28;20035;-70
2022/05/08 06:31:31;;;;;;;12.70;11.35;;;;;;;;;;5026872;28;20460;-70
2022/05/08 06:33:57;;;;;;;15.65;11.13;;;;;;;;;;5029036;28;20549;-70
2022/05/08 06:36:22;;;;;;;13.02;11.13;;;;;;;;;;5044297;28;20112;-71
2022/05/08 06:38:48;;;;;;;12.85;10.85;;;;;;;;;;5046198;28;20021;-70
2022/05/08 06:41:14;;;;;;;16.17;12.52;;;;;;;;;;5034057;28;20116;-71
2022/05/08 06:43:40;;;;;;;16.35;12.02;;;;;;;;;;5025311;28;20041;-70
2022/05/08 06:46:06;;;;;;;16.27;13.30;;;;;;;;;;5025565;28;20463;-72
2022/05/08 06:48:32;;;;;;;16.90;13.10;;;;;;;;;;5033974;28;20040;-70
2022/05/08 06:50:58;;;;;;;16.73;12.20;;;;;;;;;;5025829;28;20111;-69
2022/05/08 06:53:23;;;;;;;16.73;12.90;;;;;;;;;;5036510;28;20213;-70
2022/05/08 06:55:49;;;;;;;18.35;13.48;;;;;;;;;;5046015;28;20554;-70
2022/05/08 06:58:14;;;;;;;17.90;13.13;;;;;;;;;;5038832;28;20037;-70
2022/05/08 07:03:24;;;;;;;18.98;13.50;;;;;;;;;;5035795;28;20602;-69
2022/05/08 07:05:49;;;;;;;17.13;13.43;;;;;;;;;;5037250;28;20033;-70
2022/05/08 07:08:15;;;;;;;17.98;13.63;;;;;;;;;;5040356;28;20060;-69
2022/05/08 07:10:41;;;;;;;20.98;14.25;;;;;;;;;;5036294;28;20482;-70
2022/05/08 07:13:07;;;;;;;19.63;13.93;;;;;;;;;;5034736;28;20108;-69
2022/05/08 07:15:32;;;;;;;18.55;14.68;;;;;;;;;;5025620;28;20116;-69
2022/05/08 07:17:57;;;;;;;19.45;14.45;;;;;;;;;;5024362;28;20426;-68
2022/05/08 07:20:23;;;;;;;18.92;14.88;;;;;;;;;;5024384;28;20033;-71
2022/05/08 07:22:49;;;;;;;20.88;14.10;;;;;;;;;;5025147;28;20036;-74
2022/05/08 07:25:15;;;;;;;19.17;14.05;;;;;;;;;;5022730;28;20108;-70
2022/05/08 07:27:42;;;;;;;17.80;13.38;;;;;;;;;;5026005;28;20535;-71
2022/05/08 07:30:08;;;;;;;19.35;13.55;;;;;;;;;;5023791;28;20029;-71
2022/05/08 07:32:34;;;;;;;19.17;13.32;;;;;;;;;;5025012;28;20124;-71
2022/05/08 07:37:46;;;;;;;17.02;12.95;;;;;;;;;;5031120;28;20416;-70
2022/05/08 07:40:12;;;;;;;16.42;12.55;;;;;;;;;;5030721;28;20029;-70
2022/05/08 07:42:38;;;;;;;15.82;12.52;;;;;;;;;;5028975;28;20135;-71
2022/05/08 07:45:04;;;;;;;18.23;13.63;;;;;;;;;;5026552;28;20026;-71
2022/05/08 07:47:30;;;;;;;16.42;13.43;;;;;;;;;;5026304;28;20064;-71
2022/05/08 07:49:55;;;;;;;16.83;12.73;;;;;;;;;;5028354;28;20033;-71
2022/05/08 07:52:20;;;;;;;15.93;13.05;;;;;;;;;;5028766;28;20025;-71
2022/05/08 07:54:46;;;;;;;16.00;12.95;;;;;;;;;;5028639;28;20112;-71
2022/05/08 07:57:11;;;;;;;15.38;11.98;;;;;;;;;;5026665;28;20088;-71
2022/05/08 07:59:36;;;;;;;13.63;11.50;;;;;;;;;;5028009;28;20030;-70
2022/05/08 08:02:02;;;;;;;16.83;11.25;;;;;;;;;;5028377;28;20029;-71
2022/05/08 08:04:28;;;;;;;15.50;10.38;;;;;;;;;;5028519;28;20025;-72
2022/05/08 08:06:54;;;;;;;12.23;10.93;;;;;;;;;;5028252;28;20075;-71
2022/05/08 08:09:20;;;;;;;11.82;10.57;;;;;;;;;;5028245;28;20213;-71
2022/05/08 08:11:45;;;;;;;12.98;10.43;;;;;;;;;;5027331;28;20033;-70
2022/05/08 08:14:11;;;;;;;12.40;10.48;;;;;;;;;;5030502;28;20041;-72
2022/05/08 08:16:36;;;;;;;11.68;10.48;;;;;;;;;;5030677;28;20025;-73
2022/05/08 08:19:01;;;;;;;11.82;9.93;;;;;;;;;;5030738;28;20048;-71
2022/05/08 08:21:27;;;;;;;11.77;10.48;;;;;;;;;;5031766;28;20029;-71
2022/05/08 08:23:52;;;;;;;11.35;10.13;;;;;;;;;;5031773;28;20121;-72
2022/05/08 08:26:18;;;;;;;12.07;10.43;;;;;;;;;;5032389;28;20033;-74
2022/05/08 08:28:43;;;;;;;10.38;9.27;;;;;;;;;;5030148;28;20018;-74
2022/05/08 08:31:09;;;;;;;11.60;9.90;;;;;;;;;;5032718;28;20071;-73
2022/05/08 08:33:40;;;;;;;11.60;9.93;;;;;;;;;;5031192;28;20025;-74
2022/05/08 08:36:08;;;;;;;14.75;11.00;;;;;;;;;;5031049;28;20025;-73
2022/05/08 08:38:35;;;;;;;13.30;10.48;;;;;;;;;;5030771;28;20105;-74
2022/05/08 08:41:04;;;;;;;11.48;9.98;;;;;;;;;;5032479;28;20067;-73
2022/05/08 08:49:22;;;;;;;13.00;10.18;;;;;;;;;;5031233;28;20048;-75
2022/05/08 08:51:48;;;;;;;12.97;10.57;;;;;;;;;;5023627;28;20030;-74
2022/05/08 08:54:16;;;;;;;12.43;10.18;;;;;;;;;;5031288;28;20660;-72
2022/05/08 08:56:41;;;;;;;11.48;10.27;;;;;;;;;;5031542;28;20467;-74
2022/05/08 08:59:09;;;;;;;11.65;10.02;;;;;;;;;;5029150;28;20039;-74
2022/05/08 09:01:43;;;;;;;14.30;10.02;;;;;;;;;;5031256;28;20017;-74
2022/05/08 09:04:09;;;;;;;12.52;10.32;;;;;;;;;;5030513;28;20487;-74
2022/05/08 09:06:43;;;;;;;13.70;9.77;;;;;;;;;;5038332;28;20255;-73
2022/05/08 09:09:23;;;;;;;11.10;9.93;;;;;;;;;;5036775;28;20031;-73
2022/05/08 09:11:49;;;;;;;10.90;9.40;;;;;;;;;;5033305;28;20036;-75
2022/05/08 09:14:35;;;;;;;12.77;9.98;;;;;;;;;;5031792;28;20032;-74
2022/05/08 09:17:06;;;;;;;11.07;8.30;;;;;;;;;;5031747;28;20021;-75
2022/05/08 09:19:40;;;;;;;11.02;8.40;;;;;;;;;;5030515;28;20029;-71
2022/05/08 09:22:11;;;;;;;11.15;9.40;;;;;;;;;;5029803;28;20104;-72
2022/05/08 09:24:50;;;;;;;9.80;8.80;;;;;;;;;;5021940;28;20035;-72
2022/05/08 09:27:17;;;;;;;11.52;9.98;;;;;;;;;;5029873;28;20034;-71
2022/05/08 09:29:43;;;;;;;8.68;7.78;;;;;;;;;;5030266;28;20013;-70
2022/05/08 09:32:09;;;;;;;10.10;8.27;;;;;;;;;;5030742;28;20033;-69
2022/05/08 09:34:55;;;;;;;11.23;8.25;;;;;;;;;;5030469;28;20059;-72
2022/05/08 09:37:20;;;;;;;9.32;8.10;;;;;;;;;;5030392;28;20398;-70
2022/05/08 09:39:45;;;;;;;9.05;7.65;;;;;;;;;;5030081;28;20026;-72
2022/05/08 09:42:35;;;;;;;11.25;8.15;;;;;;;;;;5029183;28;20060;-72
2022/05/08 09:45:05;;;;;;;7.90;6.30;;;;;;;;;;5025515;28;20025;-73
2022/05/08 09:47:47;;;;;;;8.98;7.35;;;;;;;;;;5030276;28;20087;-73
2022/05/08 09:50:14;;;;;;;9.07;6.78;;;;;;;;;;5029771;28;20021;-72
2022/05/08 09:52:40;;;;;;;9.20;6.20;;;;;;;;;;5030378;28;20021;-72
2022/05/08 09:55:16;;;;;;;7.78;6.40;;;;;;;;;;5027492;28;20104;-72
2022/05/08 09:57:41;;;;;;;7.57;6.80;;;;;;;;;;5026163;28;20102;-73
2022/05/08 10:00:08;;;;;;;7.53;6.82;;;;;;;;;;5034079;28;20029;-73
2022/05/08 10:02:36;;;;;;;9.77;6.75;;;;;;;;;;5029789;28;20446;-72
2022/05/08 10:05:02;;;;;;;7.05;5.60;;;;;;;;;;5029778;28;20107;-74
2022/05/08 10:07:28;;;;;;;7.25;5.55;;;;;;;;;;5029830;28;20037;-73
2022/05/08 10:15:35;;;;;;;6.22;5.63;;;;;;;;;;5029616;28;20105;-72
2022/05/08 10:18:24;;;;;;;5.57;5.05;;;;;;;;;;5029671;28;20510;-74
2022/05/08 10:21:03;;;;;;;5.82;5.18;;;;;;;;;;5029851;28;20506;-70
2022/05/08 10:23:41;;;;;;;7.85;6.38;;;;;;;;;;5029650;28;20528;-71
2022/05/08 10:26:16;;;;;;;6.43;5.80;;;;;;;;;;5029859;28;20026;-72
2022/05/08 10:29:12;;;;;;;5.93;4.82;;;;;;;;;;5029373;28;20025;-72
2022/05/08 10:31:42;;;;;;;6.90;5.13;;;;;;;;;;5025440;28;20041;-75
2022/05/08 10:34:08;;;;;;;7.00;5.47;;;;;;;;;;5029244;28;20025;-72
2022/05/08 10:36:33;;;;;;;6.60;5.20;;;;;;;;;;5011749;28;20105;-73
2022/05/08 10:39:38;;;;;;;5.13;4.63;;;;;;;;;;5009318;28;20128;-74
2022/05/08 10:42:04;;;;;;;5.78;5.18;;;;;;;;;;5009613;28;20102;-74
2022/05/08 10:44:34;;;;;;;5.15;3.97;;;;;;;;;;5009880;28;20108;-70
2022/05/08 10:47:36;;;;;;;5.10;4.53;;;;;;;;;;5024767;28;20349;-74
2022/05/08 10:50:12;;;;;;;6.45;4.20;;;;;;;;;;5009282;28;20583;-74
2022/05/08 10:52:42;;;;;;;6.00;5.05;;;;;;;;;;5009610;28;20506;-72
2022/05/08 10:55:12;;;;;;;5.88;5.28;;;;;;;;;;5009475;28;20488;-73
2022/05/08 10:57:38;;;;;;;5.45;4.30;;;;;;;;;;5009358;28;20129;-74
2022/05/08 11:00:07;;;;;;;6.70;5.15;;;;;;;;;;5009201;28;20057;-73
2022/05/08 11:02:52;;;;;;;5.55;4.78;;;;;;;;;;5013685;28;20108;-73
2022/05/08 11:05:18;;;;;;;8.45;4.40;;;;;;;;;;5028876;28;20184;-73
2022/05/08 11:07:58;;;;;;;5.28;4.10;;;;;;;;;;5029099;28;20499;-74
2022/05/08 11:10:29;;;;;;;5.07;4.57;;;;;;;;;;5026457;28;20120;-73
2022/05/08 11:13:04;;;;;;;4.85;4.40;;;;;;;;;;5009424;28;20044;-73
2022/05/08 11:15:31;;;;;;;5.15;4.50;;;;;;;;;;5009448;28;20441;-76
2022/05/08 11:18:24;;;;;;;4.45;4.05;;;;;;;;;;5009026;28;20038;-73
2022/05/08 11:20:57;;;;;;;7.25;4.25;;;;;;;;;;5026070;28;20491;-71
2022/05/08 11:23:28;;;;;;;5.68;4.40;;;;;;;;;;5029104;28;20394;-73
2022/05/08 11:25:55;;;;;;;7.75;4.50;;;;;;;;;;5028857;28;20037;-73
2022/05/08 11:28:22;;;;;;;4.65;3.90;;;;;;;;;;5028485;28;20071;-72
2022/05/08 11:30:48;;;;;;;4.68;3.72;;;;;;;;;;5027618;28;20025;-72
2022/05/08 11:38:32;;;;;;;4.13;3.72;;;;;;;;;;5027636;28;20452;-73
2022/05/08 11:40:59;;;;;;;4.15;3.80;;;;;;;;;;5028491;28;20033;-72
2022/05/08 11:43:44;;;;;;;5.25;4.63;;;;;;;;;;5028610;28;20026;-72
2022/05/08 11:46:15;;;;;;;5.78;4.20;;;;;;;;;;5027796;28;20025;-72
2022/05/08 11:48:48;;;;;;;5.53;4.57;;;;;;;;;;5011661;28;20030;-73
2022/05/08 11:51:15;;;;;;;6.60;4.50;;;;;;;;;;5012851;28;20053;-73
2022/05/08 11:53:43;;;;;;;6.28;4.18;;;;;;;;;;5018032;28;20021;-73
2022/05/08 11:56:24;;;;;;;4.95;3.97;;;;;;;;;;5032838;28;20022;-72
2022/05/08 11:58:50;;;;;;;6.80;5.03;;;;;;;;;;5032318;28;20021;-72
2022/05/08 12:01:29;;;;;;;5.95;4.88;;;;;;;;;;5032522;28;20454;-73
2022/05/08 12:04:27;;;;;;;6.18;4.55;;;;;;;;;;5032693;28;20376;-73
2022/05/08 12:07:08;;;;;;;6.40;4.50;;;;;;;;;;5033087;28;20522;-74
2022/05/08 12:09:35;;;;;;;5.78;4.60;;;;;;;;;;5031294;28;20029;-72
2022/05/08 12:12:35;;;;;;;3.90;3.50;;;;;;;;;;5032404;28;20037;-73
2022/05/08 12:15:16;;;;;;;5.13;3.50;;;;;;;;;;5032475;28;20017;-73
2022/05/08 12:17:44;;;;;;;4.15;3.75;;;;;;;;;;5032504;28;20032;-72
2022/05/08 12:20:14;;;;;;;4.72;4.13;;;;;;;;;;5032401;28;20032;-72
2022/05/08 12:22:41;;;;;;;4.90;3.92;;;;;;;;;;5032215;28;20032;-73
2022/05/08 12:25:07;;;;;;;5.68;3.72;;;;;;;;;;5029149;28;20036;-73
2022/05/08 12:27:33;;;;;;;3.75;3.35;;;;;;;;;;5030914;28;20021;-73
2022/05/08 12:30:00;;;;;;;6.18;4.63;;;;;;;;;;5031719;28;20021;-72
2022/05/08 12:32:26;;;;;;;5.10;4.05;;;;;;;;;;5032033;28;20026;-72
2022/05/08 12:34:53;;;;;;;4.65;3.92;;;;;;;;;;5030442;28;20048;-72
2022/05/08 12:37:20;;;;;;;5.65;4.28;;;;;;;;;;5032005;28;20033;-72
2022/05/08 12:39:46;;;;;;;5.45;4.10;;;;;;;;;;5031732;28;20034;-72
2022/05/08 12:42:12;;;;;;;5.57;4.47;;;;;;;;;;5030676;28;20036;-74
2022/05/08 12:44:38;;;;;;;4.72;4.32;;;;;;;;;;5031574;28;20598;-72
2022/05/08 12:47:08;;;;;;;4.65;3.80;;;;;;;;;;5031612;28;20184;-72
2022/05/08 12:49:34;;;;;;;6.00;4.47;;;;;;;;;;5031208;28;20017;-73
2022/05/08 12:52:01;;;;;;;4.80;4.30;;;;;;;;;;5031582;28;20057;-73
2022/05/08 12:54:26;;;;;;;5.97;4.10;;;;;;;;;;5031692;28;20037;-71
2022/05/08 12:56:51;;;;;;;4.63;4.22;;;;;;;;;;5030336;28;20333;-72
2022/05/08 13:02:01;;;;;;;4.75;3.65;;;;;;;;;;5029884;28;20071;-70
2022/05/08 13:04:27;;;;;;;4.47;3.90;;;;;;;;;;5031220;28;20033;-74
2022/05/08 13:06:52;;;;;;;5.15;4.00;;;;;;;;;;5031279;28;20029;-72
2022/05/08 13:09:18;;;;;;;9.65;3.83;;;;;;;;;;5030987;28;20032;-73
2022/05/08 13:11:43;;;;;;;3.95;3.60;;;;;;;;;;5030390;28;20032;-72
2022/05/08 13:14:08;;;;;;;3.92;3.53;;;;;;;;;;5031550;28;20057;-72
2022/05/08 13:16:34;;;;;;;4.22;3.53;;;;;;;;;;5031071;28;20026;-72
2022/05/08 13:19:01;;;;;;;4.00;3.58;;;;;;;;;;5030826;28;20041;-73
2022/05/08 13:21:26;;;;;;;4.82;3.60;;;;;;;;;;5031040;28;20064;-73
2022/05/08 13:23:52;;;;;;;4.15;3.60;;;;;;;;;;5031201;28;20460;-72
2022/05/08 13:26:17;;;;;;;4.97;3.78;;;;;;;;;;5029710;28;20046;-73
2022/05/08 13:28:43;;;;;;;5.93;3.85;;;;;;;;;;5030613;28;20021;-68
2022/05/08 13:31:09;;;;;;;4.43;3.45;;;;;;;;;;5030658;28;20096;-73
2022/05/08 13:33:34;;;;;;;5.13;3.35;;;;;;;;;;5030929;28;20417;-72
2022/05/08 13:36:03;;;;;;;5.22;3.20;;;;;;;;;;5029990;28;20040;-75
2022/05/08 13:38:28;;;;;;;3.03;2.80;;;;;;;;;;5029223;28;20095;-72
2022/05/08 13:40:59;;;;;;;3.60;3.30;;;;;;;;;;5029783;28;20064;-74
2022/05/08 13:43:24;;;;;;;4.70;4.20;;;;;;;;;;5029735;28;20079;-71
2022/05/08 13:45:50;;;;;;;5.78;4.85;;;;;;;;;;5029599;28;20029;-75
2022/05/08 13:48:17;;;;;;;8.95;4.32;;;;;;;;;;5028894;28;20116;-75
2022/05/08 13:50:44;;;;;;;4.90;4.35;;;;;;;;;;5017973;28;20061;-70
2022/05/08 13:53:10;;;;;;;5.65;4.40;;;;;;;;;;5030801;28;20079;-72
2022/05/08 13:55:38;;;;;;;6.90;4.78;;;;;;;;;;5030584;28;20033;-73
2022/05/08 13:58:05;;;;;;;5.55;4.70;;;;;;;;;;5030171;28;20026;-71
2022/05/08 14:00:31;;;;;;;5.55;4.95;;;;;;;;;;5030313;28;20180;-71
2022/05/08 14:02:56;;;;;;;4.97;4.50;;;;;;;;;;5030366;28;20562;-71
2022/05/08 14:05:22;;;;;;;4.60;4.18;;;;;;;;;;5029370;28;20026;-72
2022/05/08 14:07:47;;;;;;;4.38;3.95;;;;;;;;;;5030785;28;20044;-71
2022/05/08 14:10:13;;;;;;;7.43;4.90;;;;;;;;;;5030251;28;20025;-72
2022/05/08 14:12:39;;;;;;;4.65;3.95;;;;;;;;;;5029455;28;20036;-71
2022/05/08 14:15:05;;;;;;;5.10;4.53;;;;;;;;;;5030380;28;20022;-71
2022/05/08 14:17:30;;;;;;;6.00;5.35;;;;;;;;;;5029979;28;20021;-71
2022/05/08 14:19:56;;;;;;;6.35;5.43;;;;;;;;;;5063224;22;20087;-75
2022/05/08 14:22:22;;;;;;;7.72;5.05;;;;;;;;;;5047437;28;20025;-72
2022/05/08 14:24:49;;;;;;;9.75;6.07;;;;;;;;;;5049673;28;20035;-74
2022/05/08 14:27:15;;;;;;;9.13;6.00;;;;;;;;;;5050073;28;20028;-71
2022/05/08 14:29:40;;;;;;;5.22;4.03;;;;;;;;;;5049268;28;20025;-72
2022/05/08 14:37:34;;;;;;;6.88;6.18;;;;;;;;;;5048946;28;20031;-76
2022/05/08 14:39:59;;;;;;;7.22;5.78;;;;;;;;;;5022112;28;20029;-73
2022/05/08 14:42:25;;;;;;;5.78;4.65;;;;;;;;;;5039651;28;20033;-73
2022/05/08 14:44:50;;;;;;;6.85;5.10;;;;;;;;;;5048277;28;20428;-71
2022/05/08 14:47:18;;;;;;;6.30;5.70;;;;;;;;;;5049340;28;20155;-70
2022/05/08 14:49:43;;;;;;;6.60;5.90;;;;;;;;;;5049008;28;20025;-72
2022/05/08 14:52:09;;;;;;;6.82;5.72;;;;;;;;;;5047625;28;20036;-72
2022/05/08 14:54:34;;;;;;;6.53;5.93;;;;;;;;;;5040235;28;20020;-71
2022/05/08 14:56:59;;;;;;;6.50;5.05;;;;;;;;;;5049033;28;20024;-71
2022/05/08 14:59:25;;;;;;;5.70;4.78;;;;;;;;;;5048919;28;20394;-70
2022/05/08 15:01:51;;;;;;;5.68;4.50;;;;;;;;;;5049474;28;20074;-72
2022/05/08 15:04:17;;;;;;;4.47;4.07;;;;;;;;;;5049383;28;20025;-70
2022/05/08 15:06:43;;;;;;;7.80;4.97;;;;;;;;;;5049078;28;20028;-72
2022/05/08 15:09:11;;;;;;;5.47;4.97;;;;;;;;;;5039855;28;20099;-72
2022/05/08 15:11:37;;;;;;;6.60;5.47;;;;;;;;;;5040521;28;20071;-71
2022/05/08 15:14:03;;;;;;;9.77;6.45;;;;;;;;;;5046860;28;20040;-72